createdAt,value
2018-10-01T00:02:04.543Z,9.58
2018-10-01T00:04:34.777Z,9.54
2018-10-01T00:07:05.191Z,9.49
2018-10-01T00:09:35.556Z,9.55
2018-10-01T00:12:06.051Z,9.52
2018-10-01T00:14:36.387Z,9.51
2018-10-01T00:17:06.741Z,9.45
2018-10-01T00:19:42.186Z,9.42
2018-10-01T00:22:17.661Z,9.45
2018-10-01T00:24:48.094Z,9.59
2018-10-01T00:27:18.532Z,9.53
2018-10-01T00:29:49.114Z,9.54
2018-10-01T00:32:19.295Z,9.62
2018-10-01T00:34:49.768Z,9.60
2018-10-01T00:37:20.091Z,9.47
2018-10-01T00:39:50.407Z,9.41
2018-10-01T00:42:20.637Z,9.28
2018-10-01T00:44:51.016Z,9.29
2018-10-01T00:47:21.306Z,9.22
2018-10-01T00:49:51.683Z,9.15
2018-10-01T00:52:22.061Z,9.13
2018-10-01T00:54:52.460Z,9.06
2018-10-01T00:57:23.062Z,9.05
2018-10-01T00:59:53.525Z,9.09
2018-10-01T01:02:23.886Z,9.00
2018-10-01T01:04:54.223Z,9.02
2018-10-01T01:07:24.665Z,8.96
2018-10-01T01:09:54.992Z,8.93
2018-10-01T01:12:25.420Z,8.98
2018-10-01T01:14:55.897Z,9.02
2018-10-01T01:17:26.037Z,8.89
2018-10-01T01:19:56.550Z,8.83
2018-10-01T01:22:26.864Z,8.82
2018-10-01T01:24:57.446Z,8.79
2018-10-01T01:27:28.013Z,8.79
2018-10-01T01:29:58.171Z,8.75
2018-10-01T01:32:28.509Z,8.73
2018-10-01T01:34:58.987Z,8.80
2018-10-01T01:37:29.376Z,8.75
2018-10-01T01:39:59.583Z,8.73
2018-10-01T01:42:30.051Z,8.74
2018-10-01T01:45:00.519Z,8.75
2018-10-01T01:47:30.796Z,8.70
2018-10-01T01:50:01.177Z,8.68
2018-10-01T01:52:31.497Z,8.68
2018-10-01T01:55:01.897Z,8.56
2018-10-01T01:57:32.418Z,8.55
2018-10-01T02:00:02.892Z,8.53
2018-10-01T02:02:33.116Z,8.55
2018-10-01T02:05:03.444Z,8.55
2018-10-01T02:07:33.862Z,8.59
2018-10-01T02:10:04.356Z,8.51
2018-10-01T02:12:34.848Z,8.48
2018-10-01T02:15:05.542Z,8.42
2018-10-01T02:17:35.760Z,8.45
2018-10-01T02:20:06.302Z,8.51
2018-10-01T02:22:36.756Z,8.49
2018-10-01T02:25:07.195Z,8.46
2018-10-01T02:27:37.892Z,8.56
2018-10-01T02:30:08.278Z,8.62
2018-10-01T02:32:38.815Z,8.56
2018-10-01T02:35:09.215Z,8.56
2018-10-01T02:37:39.695Z,8.54
2018-10-01T02:40:10.062Z,8.51
2018-10-01T02:42:40.553Z,8.37
2018-10-01T02:45:11.149Z,8.34
2018-10-01T02:47:41.432Z,8.27
2018-10-01T02:50:11.911Z,8.31
2018-10-01T02:52:47.174Z,8.35
2018-10-01T02:55:17.606Z,8.30
2018-10-01T02:57:48.097Z,8.23
2018-10-01T03:00:18.428Z,8.20
2018-10-01T03:02:49.039Z,8.15
2018-10-01T03:05:19.377Z,8.10
2018-10-01T03:07:49.887Z,8.08
2018-10-01T03:10:20.232Z,8.09
2018-10-01T03:12:50.499Z,8.07
2018-10-01T03:15:20.986Z,8.06
2018-10-01T03:17:51.245Z,7.94
2018-10-01T03:20:21.643Z,7.97
2018-10-01T03:22:52.207Z,7.95
2018-10-01T03:25:22.675Z,8.01
2018-10-01T03:27:52.945Z,7.99
2018-10-01T03:30:23.212Z,8.00
2018-10-01T03:32:53.499Z,8.00
2018-10-01T03:35:23.939Z,8.03
2018-10-01T03:37:54.073Z,8.04
2018-10-01T03:40:24.432Z,7.99
2018-10-01T03:42:54.630Z,8.01
2018-10-01T03:45:25.078Z,7.86
2018-10-01T03:47:55.252Z,7.81
2018-10-01T03:50:25.633Z,7.79
2018-10-01T03:52:55.929Z,7.85
2018-10-01T03:55:26.371Z,7.83
2018-10-01T03:57:56.798Z,7.76
2018-10-01T04:00:27.104Z,7.85
2018-10-01T04:02:57.549Z,7.88
2018-10-01T04:05:27.974Z,7.82
2018-10-01T04:07:58.497Z,7.82
2018-10-01T04:10:28.936Z,7.77
2018-10-01T04:12:59.088Z,7.77
2018-10-01T04:15:29.391Z,7.86
2018-10-01T04:17:59.830Z,7.89
2018-10-01T04:20:30.028Z,7.93
2018-10-01T04:23:00.383Z,7.87
2018-10-01T04:25:30.832Z,7.85
2018-10-01T04:28:01.302Z,7.84
2018-10-01T04:30:31.623Z,7.86
2018-10-01T04:33:01.931Z,7.79
2018-10-01T04:35:32.269Z,7.79
2018-10-01T04:38:02.711Z,7.75
2018-10-01T04:40:33.076Z,7.79
2018-10-01T04:43:03.327Z,7.85
2018-10-01T04:45:33.806Z,7.83
2018-10-01T04:48:04.173Z,7.85
2018-10-01T04:50:34.435Z,7.85
2018-10-01T04:53:05.011Z,7.87
2018-10-01T04:55:35.569Z,7.89
2018-10-01T04:58:05.743Z,7.83
2018-10-01T05:00:36.014Z,7.84
2018-10-01T05:03:05.982Z,7.81
2018-10-01T05:05:36.485Z,7.83
2018-10-01T05:08:06.722Z,7.85
2018-10-01T05:10:37.025Z,7.86
2018-10-01T05:13:07.557Z,7.87
2018-10-01T05:15:37.994Z,7.99
2018-10-01T05:18:08.359Z,7.99
2018-10-01T05:20:38.731Z,8.00
2018-10-01T05:23:09.107Z,7.99
2018-10-01T05:25:39.646Z,8.08
2018-10-01T05:28:10.059Z,8.05
2018-10-01T05:30:40.496Z,8.03
2018-10-01T05:33:11.033Z,7.95
2018-10-01T05:35:42.040Z,7.88
2018-10-01T05:38:12.496Z,7.85
2018-10-01T05:40:42.895Z,7.87
2018-10-01T05:43:13.590Z,7.85
2018-10-01T05:45:44.156Z,7.83
2018-10-01T05:48:14.331Z,7.72
2018-10-01T05:50:44.724Z,7.75
2018-10-01T05:53:14.952Z,7.76
2018-10-01T05:55:45.347Z,7.76
2018-10-01T05:58:15.860Z,7.83
2018-10-01T06:00:46.210Z,7.82
2018-10-01T06:03:16.723Z,7.86
2018-10-01T06:05:47.266Z,7.92
2018-10-01T06:08:17.433Z,7.96
2018-10-01T06:10:48.020Z,8.00
2018-10-01T06:13:18.271Z,8.04
2018-10-01T06:15:48.562Z,8.07
2018-10-01T06:18:18.868Z,8.08
2018-10-01T06:20:49.316Z,8.18
2018-10-01T06:23:19.648Z,8.23
2018-10-01T06:25:50.053Z,8.38
2018-10-01T06:28:20.547Z,8.46
2018-10-01T06:30:50.873Z,8.53
2018-10-01T06:33:21.107Z,8.63
2018-10-01T06:35:51.551Z,8.70
2018-10-01T06:38:21.951Z,8.72
2018-10-01T06:40:52.306Z,8.77
2018-10-01T06:43:23.117Z,8.87
2018-10-01T06:45:53.279Z,8.90
2018-10-01T06:48:23.755Z,8.84
2018-10-01T06:50:55.063Z,9.01
2018-10-01T06:53:25.443Z,9.12
2018-10-01T06:55:55.603Z,9.17
2018-10-01T06:58:26.103Z,9.29
2018-10-01T07:00:56.557Z,9.39
2018-10-01T07:03:26.861Z,9.53
2018-10-01T07:05:57.322Z,9.56
2018-10-01T07:08:27.712Z,9.58
2018-10-01T07:10:58.251Z,9.67
2018-10-01T07:13:28.607Z,9.76
2018-10-01T07:15:58.891Z,9.70
2018-10-01T07:18:29.255Z,9.87
2018-10-01T07:20:59.570Z,9.99
2018-10-01T07:23:30.071Z,10.07
2018-10-01T07:26:00.470Z,10.18
2018-10-01T07:28:30.908Z,10.22
2018-10-01T07:31:01.322Z,10.30
2018-10-01T07:33:38.380Z,10.45
2018-10-01T07:36:08.907Z,10.55
2018-10-01T07:38:39.450Z,10.68
2018-10-01T07:41:09.676Z,10.84
2018-10-01T07:43:40.317Z,10.93
2018-10-01T07:46:10.699Z,11.08
2018-10-01T07:48:41.368Z,11.18
2018-10-01T07:51:12.484Z,11.31
2018-10-01T07:53:42.842Z,11.46
2018-10-01T07:56:13.310Z,11.55
2018-10-01T07:58:43.843Z,11.57
2018-10-01T08:01:13.982Z,11.59
2018-10-01T08:03:44.466Z,11.68
2018-10-01T08:06:14.782Z,11.77
2018-10-01T08:08:45.365Z,11.88
2018-10-01T08:11:15.654Z,11.98
2018-10-01T08:13:45.974Z,12.10
2018-10-01T08:16:16.463Z,12.25
2018-10-01T08:18:46.950Z,12.41
2018-10-01T08:21:17.359Z,12.54
2018-10-01T08:23:47.805Z,12.68
2018-10-01T08:26:18.212Z,12.88
2018-10-01T08:28:48.455Z,13.01
2018-10-01T08:31:18.983Z,13.20
2018-10-01T08:33:49.258Z,13.44
2018-10-01T08:36:19.724Z,13.77
2018-10-01T08:38:50.305Z,14.10
2018-10-01T08:41:20.670Z,14.42
2018-10-01T08:43:50.912Z,14.77
2018-10-01T08:46:21.115Z,15.09
2018-10-01T08:48:56.630Z,15.33
2018-10-01T08:51:36.728Z,15.64
2018-10-01T08:54:10.753Z,15.93
2018-10-01T08:56:41.634Z,16.05
2018-10-01T08:59:12.236Z,16.10
2018-10-01T09:01:42.610Z,16.54
2018-10-01T09:04:12.904Z,17.08
2018-10-01T09:06:43.293Z,17.34
2018-10-01T09:09:13.658Z,17.29
2018-10-01T09:11:44.047Z,17.22
2018-10-01T09:14:14.504Z,17.36
2018-10-01T09:16:44.831Z,17.31
2018-10-01T09:19:15.256Z,17.13
2018-10-01T09:21:45.818Z,17.09
2018-10-01T09:24:16.104Z,17.02
2018-10-01T09:26:46.372Z,17.31
2018-10-01T09:29:16.861Z,17.70
2018-10-01T09:31:47.219Z,18.04
2018-10-01T09:34:17.685Z,18.34
2018-10-01T09:36:47.865Z,18.56
2018-10-01T09:39:18.353Z,19.15
2018-10-01T09:41:48.598Z,19.78
2018-10-01T09:44:18.987Z,19.69
2018-10-01T09:46:49.318Z,19.78
2018-10-01T09:49:19.714Z,19.96
2018-10-01T09:51:49.915Z,20.52
2018-10-01T09:54:20.310Z,21.12
2018-10-01T09:56:50.530Z,21.64
2018-10-01T09:59:20.857Z,21.68
2018-10-01T10:01:51.131Z,21.58
2018-10-01T10:04:21.519Z,20.74
2018-10-01T10:06:51.791Z,20.02
2018-10-01T10:09:22.104Z,19.79
2018-10-01T10:11:52.429Z,19.43
2018-10-01T10:14:22.927Z,19.61
2018-10-01T10:16:53.208Z,19.76
2018-10-01T10:19:23.487Z,19.82
2018-10-01T10:21:53.718Z,19.24
2018-10-01T10:24:24.030Z,19.04
2018-10-01T10:26:54.339Z,18.90
2018-10-01T10:29:24.702Z,19.01
2018-10-01T10:31:55.209Z,19.38
2018-10-01T10:34:25.627Z,19.76
2018-10-01T10:36:55.743Z,20.01
2018-10-01T10:39:26.107Z,19.81
2018-10-01T10:41:56.468Z,19.56
2018-10-01T10:44:26.810Z,19.60
2018-10-01T10:46:57.844Z,19.74
2018-10-01T10:49:28.195Z,19.74
2018-10-01T10:51:58.622Z,19.42
2018-10-01T10:54:28.961Z,19.37
2018-10-01T10:56:59.490Z,18.93
2018-10-01T10:59:29.951Z,18.74
2018-10-01T11:02:00.323Z,18.92
2018-10-01T11:04:30.701Z,18.78
2018-10-01T11:07:01.192Z,18.49
2018-10-01T11:09:31.490Z,18.40
2018-10-01T11:12:01.854Z,18.44
2018-10-01T11:14:32.295Z,18.38
2018-10-01T11:17:02.498Z,18.48
2018-10-01T11:19:32.786Z,18.84
2018-10-01T11:22:03.207Z,19.14
2018-10-01T11:24:33.367Z,19.92
2018-10-01T11:27:03.801Z,20.63
2018-10-01T11:29:34.134Z,20.57
2018-10-01T11:32:04.555Z,20.60
2018-10-01T11:34:34.840Z,20.79
2018-10-01T11:37:04.940Z,20.97
2018-10-01T11:39:35.343Z,21.14
2018-10-01T11:42:05.811Z,21.68
2018-10-01T11:44:36.034Z,21.78
2018-10-01T11:47:06.323Z,21.91
2018-10-01T11:49:36.734Z,21.49
2018-10-01T11:52:07.091Z,21.16
2018-10-01T11:54:37.376Z,20.79
2018-10-01T11:57:07.778Z,20.41
2018-10-01T11:59:38.129Z,20.11
2018-10-01T12:02:08.569Z,19.89
2018-10-01T12:04:38.833Z,19.60
2018-10-01T12:07:09.145Z,19.44
2018-10-01T12:09:39.398Z,19.29
2018-10-01T12:12:09.658Z,19.13
2018-10-01T12:14:39.973Z,19.10
2018-10-01T12:17:10.297Z,19.05
2018-10-01T12:19:40.582Z,19.02
2018-10-01T12:22:11.027Z,18.95
2018-10-01T12:24:41.356Z,18.81
2018-10-01T12:27:11.849Z,18.76
2018-10-01T12:29:42.125Z,18.73
2018-10-01T12:32:12.525Z,18.69
2018-10-01T12:34:43.054Z,18.61
2018-10-01T12:37:13.428Z,18.55
2018-10-01T12:39:43.818Z,18.54
2018-10-01T12:42:14.316Z,18.51
2018-10-01T12:44:44.693Z,18.36
2018-10-01T12:47:15.200Z,18.30
2018-10-01T12:49:45.669Z,18.17
2018-10-01T12:52:16.163Z,18.06
2018-10-01T12:54:46.564Z,18.10
2018-10-01T12:57:17.221Z,17.96
2018-10-01T12:59:47.818Z,17.88
2018-10-01T13:02:18.351Z,17.97
2018-10-01T13:04:48.723Z,17.87
2018-10-01T13:07:19.122Z,17.62
2018-10-01T13:09:49.590Z,17.46
2018-10-01T13:12:20.133Z,17.12
2018-10-01T13:14:50.294Z,17.01
2018-10-01T13:17:23.553Z,16.83
2018-10-01T13:19:54.183Z,16.68
2018-10-01T13:22:24.809Z,16.65
2018-10-01T13:24:55.275Z,16.32
2018-10-01T13:27:25.662Z,16.30
2018-10-01T13:29:56.143Z,16.21
2018-10-01T13:32:26.420Z,16.23
2018-10-01T13:34:56.835Z,16.15
2018-10-01T13:37:27.366Z,16.12
2018-10-01T13:39:57.865Z,16.18
2018-10-01T13:42:28.219Z,16.31
2018-10-01T13:44:58.555Z,16.34
2018-10-01T13:47:28.700Z,16.24
2018-10-01T13:49:59.285Z,16.33
2018-10-01T13:52:29.528Z,16.50
2018-10-01T13:55:00.120Z,16.66
2018-10-01T13:57:30.579Z,16.69
2018-10-01T14:00:00.978Z,16.61
2018-10-01T14:02:31.340Z,16.47
2018-10-01T14:05:02.360Z,16.44
2018-10-01T14:07:32.800Z,16.23
2018-10-01T14:10:03.244Z,15.90
2018-10-01T14:12:33.681Z,15.65
2018-10-01T14:15:04.150Z,15.45
2018-10-01T14:17:34.850Z,15.35
2018-10-01T14:20:05.642Z,15.22
2018-10-01T14:22:35.813Z,15.15
2018-10-01T14:25:06.224Z,15.03
2018-10-01T14:27:36.753Z,15.09
2018-10-01T14:30:07.180Z,15.13
2018-10-01T14:32:37.579Z,14.95
2018-10-01T14:35:07.904Z,14.82
2018-10-01T14:37:38.495Z,14.79
2018-10-01T14:40:08.908Z,14.71
2018-10-01T14:42:39.315Z,14.82
2018-10-01T14:45:10.673Z,14.80
2018-10-01T14:47:41.273Z,14.71
2018-10-01T14:50:11.596Z,14.77
2018-10-01T14:52:42.117Z,14.53
2018-10-01T14:55:12.819Z,14.34
2018-10-01T14:57:43.349Z,14.20
2018-10-01T15:00:13.873Z,14.16
2018-10-01T15:02:44.368Z,14.21
2018-10-01T15:05:14.874Z,14.21
2018-10-01T15:07:45.439Z,14.11
2018-10-01T15:10:15.907Z,14.13
2018-10-01T15:12:46.327Z,14.20
2018-10-01T15:15:16.887Z,14.23
2018-10-01T15:17:47.389Z,14.19
2018-10-01T15:20:17.800Z,14.30
2018-10-01T15:22:48.168Z,14.13
2018-10-01T15:25:18.584Z,14.06
2018-10-01T15:27:49.035Z,13.98
2018-10-01T15:30:19.486Z,13.97
2018-10-01T15:32:49.978Z,13.96
2018-10-01T15:35:20.377Z,13.93
2018-10-01T15:37:50.529Z,13.93
2018-10-01T15:40:21.023Z,13.96
2018-10-01T15:42:51.509Z,13.98
2018-10-01T15:45:21.756Z,13.99
2018-10-01T15:47:52.070Z,14.01
2018-10-01T15:50:22.367Z,13.98
2018-10-01T15:52:52.375Z,14.00
2018-10-01T15:55:22.327Z,14.07
2018-10-01T15:57:52.364Z,13.98
2018-10-01T16:00:22.695Z,14.03
2018-10-01T16:02:53.180Z,14.13
2018-10-01T16:05:23.767Z,13.94
2018-10-01T16:07:54.063Z,13.85
2018-10-01T16:10:24.420Z,13.77
2018-10-01T16:12:55.089Z,13.81
2018-10-01T16:15:25.471Z,13.83
2018-10-01T16:17:56.041Z,13.78
2018-10-01T16:20:26.387Z,13.70
2018-10-01T16:22:56.775Z,13.77
2018-10-01T16:25:27.385Z,13.66
2018-10-01T16:27:57.848Z,13.61
2018-10-01T16:30:27.811Z,13.55
2018-10-01T16:32:58.248Z,13.50
2018-10-01T16:35:28.811Z,13.51
2018-10-01T16:37:59.180Z,13.50
2018-10-01T16:40:29.862Z,13.47
2018-10-01T16:43:00.586Z,13.49
2018-10-01T16:45:31.136Z,13.44
2018-10-01T16:48:01.487Z,13.44
2018-10-01T16:50:31.866Z,13.41
2018-10-01T16:53:02.199Z,13.43
2018-10-01T16:55:32.739Z,13.52
2018-10-01T16:58:03.073Z,13.51
2018-10-01T17:00:33.416Z,13.43
2018-10-01T17:03:03.841Z,13.44
2018-10-01T17:05:34.524Z,13.39
2018-10-01T17:08:05.185Z,13.36
2018-10-01T17:10:35.540Z,13.38
2018-10-01T17:13:05.881Z,13.36
2018-10-01T17:15:36.334Z,13.33
2018-10-01T17:18:06.683Z,13.30
2018-10-01T17:20:37.118Z,13.29
2018-10-01T17:23:07.541Z,13.31
2018-10-01T17:25:38.154Z,13.32
2018-10-01T17:28:08.649Z,13.31
2018-10-01T17:30:39.680Z,13.32
2018-10-01T17:33:10.148Z,13.31
2018-10-01T17:35:40.461Z,13.34
2018-10-01T17:38:10.892Z,13.33
2018-10-01T17:40:41.376Z,13.35
2018-10-01T17:43:11.879Z,13.40
2018-10-01T17:45:42.439Z,13.34
2018-10-01T17:48:12.827Z,13.31
2018-10-01T17:50:43.275Z,13.30
2018-10-01T17:53:14.428Z,13.29
2018-10-01T17:55:44.817Z,13.29
2018-10-01T17:58:15.136Z,13.31
2018-10-01T18:00:45.632Z,13.27
2018-10-01T18:03:16.113Z,13.26
2018-10-01T18:05:46.548Z,13.27
2018-10-01T18:08:16.908Z,13.28
2018-10-01T18:10:47.646Z,13.31
2018-10-01T18:13:18.033Z,13.30
2018-10-01T18:15:48.335Z,13.28
2018-10-01T18:18:18.840Z,13.25
2018-10-01T18:20:49.271Z,13.27
2018-10-01T18:23:19.516Z,13.26
2018-10-01T18:25:50.018Z,13.23
2018-10-01T18:28:20.344Z,13.21
2018-10-01T18:30:50.847Z,13.25
2018-10-01T18:33:21.443Z,13.28
2018-10-01T18:35:51.922Z,13.28
2018-10-01T18:38:22.435Z,13.25
2018-10-01T18:40:52.815Z,13.24
2018-10-01T18:43:23.312Z,13.22
2018-10-01T18:45:53.868Z,13.19
2018-10-01T18:48:24.307Z,13.20
2018-10-01T18:50:54.939Z,13.19
2018-10-01T18:53:25.360Z,13.19
2018-10-01T18:55:55.817Z,13.21
2018-10-01T18:58:26.304Z,13.19
2018-10-01T19:00:56.863Z,13.18
2018-10-01T19:03:27.353Z,13.19
2018-10-01T19:05:57.939Z,13.19
2018-10-01T19:08:28.452Z,13.19
2018-10-01T19:10:58.844Z,13.16
2018-10-01T19:13:29.283Z,13.17
2018-10-01T19:15:59.849Z,13.15
2018-10-01T19:18:30.341Z,13.15
2018-10-01T19:21:00.888Z,13.15
2018-10-01T19:23:31.197Z,13.11
2018-10-01T19:26:01.610Z,13.12
2018-10-01T19:28:32.160Z,13.13
2018-10-01T19:31:02.679Z,13.13
2018-10-01T19:33:33.362Z,13.10
2018-10-01T19:36:04.155Z,13.09
2018-10-01T19:38:34.473Z,13.10
2018-10-01T19:41:04.944Z,13.07
2018-10-01T19:43:35.224Z,13.07
2018-10-01T19:46:05.843Z,13.11
2018-10-01T19:48:36.363Z,12.99
2018-10-01T19:51:06.947Z,12.99
2018-10-01T19:53:38.187Z,12.97
2018-10-01T19:56:09.033Z,12.97
2018-10-01T19:58:39.602Z,12.91
2018-10-01T20:01:10.236Z,12.92
2018-10-01T20:03:40.925Z,12.90
2018-10-01T20:06:11.278Z,12.90
2018-10-01T20:08:41.659Z,12.91
2018-10-01T20:11:12.141Z,12.93
2018-10-01T20:13:42.723Z,12.94
2018-10-01T20:16:13.056Z,13.02
2018-10-01T20:18:43.081Z,12.97
2018-10-01T20:21:13.159Z,12.91
2018-10-01T20:23:43.338Z,12.85
2018-10-01T20:26:13.437Z,13.07
2018-10-01T20:28:43.722Z,12.95
2018-10-01T20:31:13.494Z,12.74
2018-10-01T20:33:43.526Z,12.63
2018-10-01T20:36:13.620Z,12.63
2018-10-01T20:38:44.241Z,12.56
2018-10-01T20:41:14.330Z,12.54
2018-10-01T20:43:44.446Z,12.57
2018-10-01T20:46:21.448Z,12.45
2018-10-01T20:48:51.759Z,12.45
2018-10-01T20:51:21.898Z,12.49
2018-10-01T20:53:51.930Z,12.48
2018-10-01T20:56:21.954Z,12.50
2018-10-01T20:58:51.938Z,12.51
2018-10-01T21:01:21.945Z,12.48
2018-10-01T21:03:52.050Z,12.44
2018-10-01T21:06:28.752Z,12.57
2018-10-01T21:08:58.775Z,12.45
2018-10-01T21:11:28.909Z,12.61
2018-10-01T21:13:58.868Z,12.43
2018-10-01T21:16:28.842Z,12.49
2018-10-01T21:18:58.860Z,12.38
2018-10-01T21:21:28.828Z,12.41
2018-10-01T21:23:59.531Z,12.48
2018-10-01T21:26:29.885Z,12.38
2018-10-01T21:29:00.094Z,12.29
2018-10-01T21:31:30.263Z,12.27
2018-10-01T21:34:00.578Z,12.17
2018-10-01T21:36:30.942Z,12.12
2018-10-01T21:39:00.858Z,12.10
2018-10-01T21:41:30.781Z,12.15
2018-10-01T21:44:00.681Z,12.25
2018-10-01T21:46:31.062Z,12.13
2018-10-01T21:49:01.391Z,12.09
2018-10-01T21:51:31.828Z,12.03
2018-10-01T21:54:02.116Z,12.06
2018-10-01T21:56:32.417Z,12.02
2018-10-01T21:59:02.769Z,12.03
2018-10-01T22:01:38.060Z,12.04
2018-10-01T22:04:08.643Z,12.04
2018-10-01T22:06:38.878Z,12.01
2018-10-01T22:09:09.543Z,11.99
2018-10-01T22:11:39.866Z,12.02
2018-10-01T22:14:10.353Z,12.00
2018-10-01T22:16:40.812Z,11.98
2018-10-01T22:19:11.050Z,11.98
2018-10-01T22:21:41.564Z,11.99
2018-10-01T22:24:11.900Z,11.94
2018-10-01T22:26:42.303Z,11.88
2018-10-01T22:29:12.522Z,11.85
2018-10-01T22:31:42.795Z,11.85
2018-10-01T22:34:13.249Z,11.85
2018-10-01T22:36:43.736Z,11.85
2018-10-01T22:39:14.031Z,11.82
2018-10-01T22:41:44.395Z,11.79
2018-10-01T22:44:14.310Z,11.76
2018-10-01T22:46:44.559Z,11.77
2018-10-01T22:49:14.893Z,11.79
2018-10-01T22:51:45.546Z,11.80
2018-10-01T22:54:15.722Z,11.78
2018-10-01T22:56:46.119Z,11.76
2018-10-01T22:59:16.510Z,11.75
2018-10-01T23:01:46.988Z,11.77
2018-10-01T23:04:17.292Z,11.78
2018-10-01T23:06:47.580Z,11.77
2018-10-01T23:09:18.162Z,11.75
2018-10-01T23:11:48.662Z,11.74
2018-10-01T23:14:18.901Z,11.74
2018-10-01T23:16:49.292Z,11.71
2018-10-01T23:19:19.597Z,11.78
2018-10-01T23:21:50.143Z,11.74
2018-10-01T23:24:20.500Z,11.78
2018-10-01T23:26:50.865Z,11.79
2018-10-01T23:29:20.868Z,11.87
2018-10-01T23:31:50.771Z,11.85
2018-10-01T23:34:20.706Z,11.77
2018-10-01T23:36:50.617Z,11.70
2018-10-01T23:39:20.497Z,11.66
2018-10-01T23:41:51.161Z,11.60
2018-10-01T23:44:21.196Z,11.61
2018-10-01T23:46:51.082Z,11.60
2018-10-01T23:49:21.410Z,11.56
2018-10-01T23:51:51.714Z,11.56
2018-10-01T23:54:22.088Z,11.52
2018-10-01T23:56:52.338Z,11.51
2018-10-01T23:59:22.590Z,11.51
